Emmonak Airport Emmonak US
ICAO: PAEM
IATA:
Category: Medium
Scheduled Services:

Elevation: 13 ft
TransAlt. 18000 ft.

Airport Communications:
AWOS 3:135.35
ANCHORAGE CNTR:132.5
CTAF:122.9
KENAI RDO:122.55
TWEB:177.8

PAEM Zoom In..

Runways:

(A) RW 16 length 4601 ft width 100 ft
---- / hdg 163

(B) RW 34 length 4601 ft width 100 ft
---- / hdg 343

Location; PAEM
Day. 21 / Time. 23.56 Zulu
* Altimeter: 30.34
* Temperature: -22° c. 7.6°f.
* Wind from: 310° Speed 04 kn.
Dewpoint: -24° c.
Visibility: 10 Statute Miles.
Clouds: Clear (automated report).

PAEM 212356Z AUTO 31004KT 10SM CLR M22/M24 A3034 RMK AO2 SLP334 T12171244 11217 21250 56002 FZRANO


Wind From 310°
Speed 04 kn.

jpsM music video
CHECK IT OUT

jpsM - It Moves..

 
jpsmedia.com for Web Design  worldairports.se 2018   terms of use